Terminal Aerodrome Forecast
Issued by NWS

Home | Current Version | Previous Version | Text Only | Print | Product List | Glossary On
Versions: 1 2 3 4 5 6 7 8 9 10 11 12
000
FTUS45 KSLC 191723
TAFPVU
TAF
KPVU 191723Z 1918/2018 VRB05KT P6SM SCT070 SCT120
     FM192000 23007KT P6SM VCSH SCT070 BKN100
     FM200300 VRB04KT P6SM SCT070 SCT120
     FM201600 33006KT P6SM FEW070 SCT200
      AMD LTD TO CLD VIS AND WIND=

USA.gov is the U.S. government's official web portal to all federal, state and local government web resources and services.